createdAt,value
2018-03-11T00:02:02.940Z,9.50
2018-03-11T00:04:29.924Z,9.50
2018-03-11T00:06:56.903Z,9.50
2018-03-11T00:09:24.652Z,9.50
2018-03-11T00:11:51.633Z,9.50
2018-03-11T00:14:18.612Z,9.50
2018-03-11T00:16:45.675Z,9.50
2018-03-11T00:19:12.657Z,9.50
2018-03-11T00:21:40.406Z,9.50
2018-03-11T00:24:08.154Z,9.50
2018-03-11T00:26:35.136Z,9.50
2018-03-11T00:29:02.123Z,9.50
2018-03-11T00:31:29.105Z,9.50
2018-03-11T00:33:56.088Z,9.50
2018-03-11T00:36:23.062Z,9.50
2018-03-11T00:38:50.038Z,9.50
2018-03-11T00:41:17.876Z,9.50
2018-03-11T00:43:44.859Z,9.50
2018-03-11T00:46:12.603Z,9.50
2018-03-11T00:48:39.595Z,9.50
2018-03-11T00:51:06.584Z,9.50
2018-03-11T00:53:33.571Z,9.50
2018-03-11T00:56:00.552Z,9.50
2018-03-11T00:58:27.543Z,9.50
2018-03-11T01:00:55.286Z,9.50
2018-03-11T01:03:22.279Z,9.50
2018-03-11T01:05:49.439Z,9.50
2018-03-11T01:08:16.434Z,9.50
2018-03-11T01:10:43.419Z,9.50
2018-03-11T01:13:10.395Z,9.50
2018-03-11T01:15:37.378Z,9.50
2018-03-11T01:18:04.363Z,9.50
2018-03-11T01:20:31.346Z,9.50
2018-03-11T01:22:58.323Z,9.50
2018-03-11T01:25:26.082Z,9.50
2018-03-11T01:27:53.060Z,9.50
2018-03-11T01:30:20.041Z,9.50
2018-03-11T01:32:47.019Z,9.50
2018-03-11T01:35:14.766Z,9.50
2018-03-11T01:37:41.794Z,9.50
2018-03-11T01:40:08.775Z,9.50
2018-03-11T01:42:36.527Z,9.50
2018-03-11T01:45:03.509Z,9.50
2018-03-11T01:47:30.492Z,9.50
2018-03-11T01:49:57.500Z,9.50
2018-03-11T01:52:24.484Z,9.50
2018-03-11T01:54:51.464Z,9.50
2018-03-11T01:57:19.210Z,9.50
2018-03-11T01:59:46.194Z,9.50
2018-03-11T02:02:13.183Z,9.50
2018-03-11T02:04:40.167Z,9.40
2018-03-11T02:07:07.910Z,9.50
2018-03-11T02:09:34.891Z,9.50
2018-03-11T02:12:01.870Z,9.50
2018-03-11T02:14:28.851Z,9.50
2018-03-11T02:16:55.839Z,9.50
2018-03-11T02:19:22.824Z,9.50
2018-03-11T02:21:49.801Z,9.50
2018-03-11T02:24:17.550Z,9.50
2018-03-11T02:26:44.526Z,9.40
2018-03-11T02:29:11.521Z,9.50
2018-03-11T02:31:38.500Z,9.50
2018-03-11T02:34:06.243Z,9.50
2018-03-11T02:36:33.233Z,9.50
2018-03-11T02:39:00.212Z,9.50
2018-03-11T02:41:27.191Z,9.50
2018-03-11T02:43:54.172Z,9.50
2018-03-11T02:46:21.158Z,9.50
2018-03-11T02:48:48.140Z,9.50
2018-03-11T02:51:15.904Z,9.50
2018-03-11T02:53:43.647Z,9.50
2018-03-11T02:56:10.634Z,9.50
2018-03-11T02:58:37.620Z,9.50
2018-03-11T03:01:04.605Z,9.50
2018-03-11T03:03:32.389Z,9.50
2018-03-11T03:05:59.364Z,9.50
2018-03-11T03:08:26.338Z,9.50
2018-03-11T03:10:53.318Z,9.50
2018-03-11T03:13:20.300Z,9.50
2018-03-11T03:15:47.278Z,9.50
2018-03-11T03:18:15.034Z,9.50
2018-03-11T03:20:42.011Z,9.50
2018-03-11T03:23:08.995Z,9.50
2018-03-11T03:25:35.975Z,9.50
2018-03-11T03:28:02.959Z,9.50
2018-03-11T03:30:29.945Z,9.50
2018-03-11T03:32:56.924Z,9.50
2018-03-11T03:35:24.675Z,9.50
2018-03-11T03:37:51.656Z,9.50
2018-03-11T03:40:18.631Z,9.50
2018-03-11T03:42:45.616Z,9.50
2018-03-11T03:45:13.451Z,9.50
2018-03-11T03:47:40.426Z,9.50
2018-03-11T03:50:08.199Z,9.50
2018-03-11T03:52:36.045Z,9.50
2018-03-11T03:55:03.045Z,9.50
2018-03-11T03:57:30.035Z,9.50
2018-03-11T03:59:57.015Z,9.50
2018-03-11T04:02:23.994Z,9.50
2018-03-11T04:04:50.976Z,9.50
2018-03-11T04:07:18.722Z,9.50
2018-03-11T04:09:45.702Z,9.50
2018-03-11T04:12:13.450Z,9.40
2018-03-11T04:14:41.239Z,9.50
2018-03-11T04:17:08.215Z,9.50
2018-03-11T04:19:35.195Z,9.50
2018-03-11T04:22:02.179Z,9.50
2018-03-11T04:24:29.924Z,9.50
2018-03-11T04:26:57.679Z,9.50
2018-03-11T04:29:25.429Z,9.50
2018-03-11T04:31:53.184Z,9.50
2018-03-11T04:34:20.165Z,9.50
2018-03-11T04:36:47.935Z,9.50
2018-03-11T04:39:14.920Z,9.50
2018-03-11T04:41:41.907Z,9.50
2018-03-11T04:44:09.652Z,9.40
2018-03-11T04:46:36.644Z,9.40
2018-03-11T04:49:03.623Z,9.50
2018-03-11T04:51:30.603Z,9.50
2018-03-11T04:53:58.355Z,9.50
2018-03-11T04:56:25.384Z,9.50
2018-03-11T04:58:52.364Z,9.50
2018-03-11T05:01:20.114Z,9.50
2018-03-11T05:03:47.103Z,9.40
2018-03-11T05:06:14.083Z,9.50
2018-03-11T05:08:41.062Z,9.50
2018-03-11T05:11:08.812Z,9.50
2018-03-11T05:13:35.798Z,9.40
2018-03-11T05:16:02.783Z,9.50
2018-03-11T05:18:29.768Z,9.50
2018-03-11T05:20:57.520Z,9.50
2018-03-11T05:23:25.263Z,9.50
2018-03-11T05:25:52.302Z,9.50
2018-03-11T05:28:19.283Z,9.50
2018-03-11T05:30:47.040Z,9.50
2018-03-11T05:33:14.871Z,9.50
2018-03-11T05:35:41.856Z,9.50
2018-03-11T05:38:09.604Z,9.50
2018-03-11T05:40:36.597Z,9.40
2018-03-11T05:43:03.671Z,9.50
2018-03-11T05:45:30.655Z,9.40
2018-03-11T05:47:58.404Z,9.50
2018-03-11T05:50:25.387Z,9.40
2018-03-11T05:52:52.374Z,9.40
2018-03-11T05:55:19.431Z,9.50
2018-03-11T05:57:46.425Z,9.40
2018-03-11T06:00:13.420Z,9.50
2018-03-11T06:02:40.662Z,9.50
2018-03-11T06:05:07.653Z,9.40
2018-03-11T06:07:35.423Z,9.50
2018-03-11T06:10:03.177Z,9.50
2018-03-11T06:12:30.933Z,9.50
2018-03-11T06:14:58.675Z,9.40
2018-03-11T06:17:25.662Z,9.40
2018-03-11T06:19:52.655Z,9.50
2018-03-11T06:22:19.640Z,9.40
2018-03-11T06:24:47.392Z,9.40
2018-03-11T06:27:15.144Z,9.40
2018-03-11T06:29:42.129Z,9.50
2018-03-11T06:32:09.103Z,9.40
2018-03-11T06:34:36.088Z,9.40
2018-03-11T06:37:03.073Z,9.50
2018-03-11T06:39:30.157Z,9.50
2018-03-11T06:41:57.146Z,9.40
2018-03-11T06:44:24.136Z,9.40
2018-03-11T06:46:51.200Z,9.40
2018-03-11T06:49:18.184Z,9.50
2018-03-11T06:51:45.929Z,9.40
2018-03-11T06:54:13.685Z,9.40
2018-03-11T06:56:40.679Z,9.40
2018-03-11T06:59:07.668Z,9.40
2018-03-11T07:01:34.699Z,9.40
2018-03-11T07:04:01.691Z,9.40
2018-03-11T07:06:29.455Z,9.40
2018-03-11T07:08:57.204Z,9.50
2018-03-11T07:11:24.184Z,9.40
2018-03-11T07:13:51.268Z,9.50
2018-03-11T07:16:18.316Z,9.40
2018-03-11T07:18:45.310Z,9.40
2018-03-11T07:21:12.309Z,9.50
2018-03-11T07:23:39.333Z,9.40
2018-03-11T07:26:06.400Z,9.50
2018-03-11T07:28:33.411Z,9.50
2018-03-11T07:31:00.390Z,9.50
2018-03-11T07:33:27.422Z,9.50
2018-03-11T07:35:55.190Z,9.60
2018-03-11T07:38:22.889Z,9.50
2018-03-11T07:40:49.870Z,9.50
2018-03-11T07:43:16.855Z,9.60
2018-03-11T07:45:43.844Z,9.60
2018-03-11T07:48:11.587Z,9.60
2018-03-11T07:50:39.339Z,9.60
2018-03-11T07:53:06.332Z,9.60
2018-03-11T07:55:33.315Z,9.60
2018-03-11T07:58:00.292Z,9.60
2018-03-11T08:00:28.051Z,9.60
2018-03-11T08:02:55.800Z,9.60
2018-03-11T08:05:22.788Z,9.50
2018-03-11T08:07:49.775Z,9.60
2018-03-11T08:10:16.775Z,9.60
2018-03-11T08:12:43.766Z,9.60
2018-03-11T08:15:10.756Z,9.60
2018-03-11T08:17:38.622Z,9.60
2018-03-11T08:20:06.366Z,9.60
2018-03-11T08:22:34.132Z,9.50
2018-03-11T08:25:01.924Z,9.60
2018-03-11T08:27:28.904Z,9.60
2018-03-11T08:29:55.882Z,9.60
2018-03-11T08:32:22.871Z,9.60
2018-03-11T08:34:49.850Z,9.60
2018-03-11T08:37:16.853Z,9.60
2018-03-11T08:39:43.840Z,9.60
2018-03-11T08:42:10.820Z,9.60
2018-03-11T08:44:38.568Z,9.60
2018-03-11T08:47:05.552Z,9.60
2018-03-11T08:49:32.531Z,9.60
2018-03-11T08:52:00.497Z,9.60
2018-03-11T08:54:27.479Z,9.60
2018-03-11T08:56:55.235Z,9.60
2018-03-11T08:59:22.297Z,9.60
2018-03-11T09:01:49.212Z,9.60
2018-03-11T09:04:16.194Z,9.60
2018-03-11T09:06:43.947Z,9.60
2018-03-11T09:09:11.709Z,9.60
2018-03-11T09:11:38.699Z,9.60
2018-03-11T09:14:05.678Z,9.60
2018-03-11T09:16:32.673Z,9.60
2018-03-11T09:18:59.650Z,9.60
2018-03-11T09:21:26.644Z,9.60
2018-03-11T09:23:54.386Z,9.60
2018-03-11T09:26:21.367Z,9.60
2018-03-11T09:28:48.347Z,9.60
2018-03-11T09:31:15.329Z,9.60
2018-03-11T09:33:42.317Z,9.60
2018-03-11T09:36:09.411Z,9.60
2018-03-11T09:38:37.476Z,9.60
2018-03-11T09:41:06.150Z,9.60
2018-03-11T09:43:33.124Z,9.70
2018-03-11T09:46:00.104Z,9.70
2018-03-11T09:48:27.098Z,9.70
2018-03-11T09:50:54.072Z,9.60
2018-03-11T09:53:21.849Z,9.70
2018-03-11T09:55:48.855Z,9.70
2018-03-11T09:58:15.859Z,9.70
2018-03-11T10:00:42.919Z,9.70
2018-03-11T10:03:09.909Z,9.70
2018-03-11T10:05:37.655Z,9.70
2018-03-11T10:08:04.659Z,9.70
2018-03-11T10:10:31.643Z,9.70
2018-03-11T10:12:58.620Z,9.70
2018-03-11T10:15:26.366Z,9.70
2018-03-11T10:17:53.351Z,9.70
2018-03-11T10:20:20.332Z,9.70
2018-03-11T10:22:47.321Z,9.70
2018-03-11T10:25:15.071Z,9.70
2018-03-11T10:27:42.115Z,9.70
2018-03-11T10:30:09.164Z,9.70
2018-03-11T10:32:36.124Z,9.70
2018-03-11T10:35:03.896Z,9.70
2018-03-11T10:37:30.880Z,9.70
2018-03-11T10:39:57.898Z,9.70
2018-03-11T10:42:24.875Z,9.70
2018-03-11T10:44:51.875Z,9.70
2018-03-11T10:47:19.616Z,9.70
2018-03-11T10:49:46.607Z,9.70
2018-03-11T10:52:13.589Z,9.70
2018-03-11T10:54:40.583Z,9.70
2018-03-11T10:57:07.563Z,9.70
2018-03-11T10:59:34.633Z,9.70
2018-03-11T11:02:01.613Z,9.70
2018-03-11T11:04:33.307Z,9.70
2018-03-11T11:07:00.297Z,9.70
2018-03-11T11:09:28.043Z,9.70
2018-03-11T11:11:55.035Z,9.70
2018-03-11T11:14:22.011Z,9.70
2018-03-11T11:16:48.996Z,9.70
2018-03-11T11:19:16.776Z,9.70
2018-03-11T11:21:43.727Z,9.70
2018-03-11T11:24:10.709Z,9.70
2018-03-11T11:26:37.696Z,9.70
2018-03-11T11:29:05.448Z,9.80
2018-03-11T11:31:32.431Z,9.80
2018-03-11T11:33:59.412Z,9.80
2018-03-11T11:36:26.400Z,9.80
2018-03-11T11:38:54.227Z,9.80
2018-03-11T11:41:21.237Z,9.80
2018-03-11T11:43:48.343Z,9.80
2018-03-11T11:46:15.430Z,9.80
2018-03-11T11:48:42.456Z,9.80
2018-03-11T11:51:09.508Z,9.80
2018-03-11T11:53:37.277Z,9.80
2018-03-11T11:56:05.083Z,9.80
2018-03-11T11:58:32.102Z,9.80
2018-03-11T12:00:59.091Z,9.80
2018-03-11T12:03:26.724Z,9.80
2018-03-11T12:05:53.735Z,9.80
2018-03-11T12:08:21.488Z,9.80
2018-03-11T12:10:49.280Z,9.80
2018-03-11T12:13:16.273Z,9.90
2018-03-11T12:15:43.345Z,9.80
2018-03-11T12:18:10.399Z,9.90
2018-03-11T12:20:37.469Z,9.90
2018-03-11T12:23:04.493Z,9.90
2018-03-11T12:25:31.544Z,9.90
2018-03-11T12:27:59.308Z,10.10
2018-03-11T12:30:27.064Z,10.50
2018-03-11T12:32:54.814Z,10.80
2018-03-11T12:35:22.580Z,11.20
2018-03-11T12:37:50.328Z,11.50
2018-03-11T12:40:17.326Z,11.50
2018-03-11T12:42:44.313Z,11.80
2018-03-11T12:45:11.313Z,12.00
2018-03-11T12:47:38.299Z,12.20
2018-03-11T12:50:05.291Z,12.40
2018-03-11T12:52:32.303Z,12.60
2018-03-11T12:54:59.299Z,12.70
2018-03-11T12:57:26.284Z,12.80
2018-03-11T12:59:53.271Z,12.90
2018-03-11T13:02:20.268Z,13.00
2018-03-11T13:04:47.253Z,13.00
2018-03-11T13:07:15.007Z,13.10
2018-03-11T13:09:42.756Z,13.10
2018-03-11T13:12:09.758Z,13.10
2018-03-11T13:14:36.748Z,13.10
2018-03-11T13:17:03.747Z,13.10
2018-03-11T13:19:30.737Z,13.10
2018-03-11T13:21:58.694Z,13.10
2018-03-11T13:24:25.684Z,13.10
2018-03-11T13:26:52.700Z,13.20
2018-03-11T13:29:19.691Z,13.20
2018-03-11T13:31:46.684Z,13.20
2018-03-11T13:34:19.591Z,13.30
2018-03-11T13:36:47.352Z,13.50
2018-03-11T13:39:21.071Z,13.60
2018-03-11T13:41:48.096Z,13.60
2018-03-11T13:44:15.084Z,13.70
2018-03-11T13:46:47.944Z,13.70
2018-03-11T13:49:15.704Z,13.70
2018-03-11T13:51:49.288Z,13.70
2018-03-11T13:54:16.279Z,13.70
2018-03-11T13:56:43.271Z,13.70
2018-03-11T13:59:10.259Z,13.80
2018-03-11T14:01:37.248Z,13.80
2018-03-11T14:04:04.250Z,13.80
2018-03-11T14:06:31.229Z,13.90
2018-03-11T14:08:58.217Z,13.90
2018-03-11T14:11:25.964Z,14.00
2018-03-11T14:13:52.958Z,13.90
2018-03-11T14:16:19.948Z,13.90
2018-03-11T14:18:46.938Z,13.90
2018-03-11T14:21:13.928Z,13.90
2018-03-11T14:23:41.463Z,14.00
2018-03-11T14:26:08.455Z,13.90
2018-03-11T14:28:36.211Z,13.90
2018-03-11T14:31:03.199Z,13.90
2018-03-11T14:33:30.201Z,14.00
2018-03-11T14:35:57.195Z,14.00
2018-03-11T14:38:24.184Z,14.10
2018-03-11T14:40:51.171Z,14.00
2018-03-11T14:43:18.164Z,13.90
2018-03-11T14:45:45.152Z,13.70
2018-03-11T14:48:12.909Z,13.10
2018-03-11T14:50:40.679Z,12.90
2018-03-11T14:53:08.431Z,12.90
2018-03-11T14:55:36.191Z,12.90
2018-03-11T14:58:03.952Z,12.80
2018-03-11T15:00:30.983Z,12.80
2018-03-11T15:02:57.967Z,12.60
2018-03-11T15:05:24.960Z,12.50
2018-03-11T15:07:51.953Z,12.30
2018-03-11T15:10:19.712Z,12.10
2018-03-11T15:12:47.462Z,12.00
2018-03-11T15:15:14.450Z,12.00
2018-03-11T15:17:41.443Z,11.90
2018-03-11T15:20:08.472Z,11.80
2018-03-11T15:22:35.464Z,11.80
2018-03-11T15:25:03.220Z,11.60
2018-03-11T15:27:31.051Z,11.50
2018-03-11T15:29:58.038Z,11.60
2018-03-11T15:32:25.048Z,11.50
2018-03-11T15:34:52.034Z,11.50
2018-03-11T15:37:19.026Z,11.40
2018-03-11T15:39:46.012Z,11.40
2018-03-11T15:42:13.850Z,11.30
2018-03-11T15:44:40.847Z,11.30
2018-03-11T15:47:07.834Z,11.30
2018-03-11T15:49:34.865Z,11.30
2018-03-11T15:52:01.827Z,11.30
2018-03-11T15:54:28.851Z,11.30
2018-03-11T15:56:55.839Z,11.30
2018-03-11T15:59:23.611Z,11.30
2018-03-11T16:01:51.363Z,11.20
2018-03-11T16:04:18.363Z,11.20
2018-03-11T16:06:45.981Z,11.20
2018-03-11T16:09:14.106Z,11.20
2018-03-11T16:11:41.120Z,11.20
2018-03-11T16:14:08.118Z,11.10
2018-03-11T16:16:35.103Z,11.20
2018-03-11T16:19:02.864Z,11.10
2018-03-11T16:21:30.625Z,11.10
2018-03-11T16:23:58.383Z,11.10
2018-03-11T16:26:26.139Z,11.10
2018-03-11T16:28:53.907Z,11.10
2018-03-11T16:31:21.743Z,11.10
2018-03-11T16:33:48.748Z,11.10
2018-03-11T16:36:15.728Z,11.00
2018-03-11T16:38:42.740Z,11.00
2018-03-11T16:41:09.724Z,11.00
2018-03-11T16:43:36.715Z,11.00
2018-03-11T16:46:03.729Z,11.00
2018-03-11T16:48:30.697Z,11.00
2018-03-11T16:50:58.453Z,11.00
2018-03-11T16:53:26.228Z,11.00
2018-03-11T16:55:53.992Z,11.00
2018-03-11T16:58:21.753Z,11.00
2018-03-11T17:00:49.523Z,11.00
2018-03-11T17:03:17.275Z,11.00
2018-03-11T17:05:45.044Z,11.00
2018-03-11T17:08:12.802Z,11.00
2018-03-11T17:10:40.568Z,10.90
2018-03-11T17:13:08.328Z,10.90
2018-03-11T17:15:36.097Z,10.90
2018-03-11T17:18:03.857Z,10.90
2018-03-11T17:20:31.710Z,11.00
2018-03-11T17:22:58.709Z,11.00
2018-03-11T17:25:25.707Z,11.00
2018-03-11T17:27:53.464Z,10.90
2018-03-11T17:30:20.477Z,10.90
2018-03-11T17:32:47.518Z,10.90
2018-03-11T17:35:14.476Z,10.90
2018-03-11T17:37:41.485Z,10.90
2018-03-11T17:40:08.487Z,10.90
2018-03-11T17:42:35.520Z,10.90
2018-03-11T17:45:02.492Z,10.90
2018-03-11T17:51:41.519Z,10.90
2018-03-11T17:54:08.512Z,10.90
2018-03-11T17:56:35.520Z,10.90
2018-03-11T17:59:02.524Z,10.90
2018-03-11T18:01:29.543Z,10.90
2018-03-11T18:03:58.061Z,10.90
2018-03-11T18:06:25.026Z,10.90
2018-03-11T18:08:52.023Z,10.90
2018-03-11T18:13:59.721Z,10.80
2018-03-11T18:16:27.525Z,10.90
2018-03-11T18:18:55.302Z,10.80
2018-03-11T18:21:23.094Z,10.90
2018-03-11T18:23:50.879Z,10.80
2018-03-11T18:26:18.385Z,10.80
2018-03-11T18:28:45.535Z,10.80
2018-03-11T18:31:12.603Z,10.80
2018-03-11T18:33:39.599Z,10.90
2018-03-11T18:36:06.610Z,10.80
2018-03-11T18:38:33.655Z,10.80
2018-03-11T18:41:00.696Z,10.80
2018-03-11T18:43:28.058Z,10.80
2018-03-11T18:45:55.971Z,10.80
2018-03-11T18:48:23.052Z,10.80
2018-03-11T18:50:50.183Z,10.80
2018-03-11T18:53:18.045Z,10.80
2018-03-11T18:55:45.848Z,10.80
2018-03-11T18:58:14.627Z,10.80
2018-03-11T19:00:41.632Z,10.80
2018-03-11T19:03:09.402Z,10.80
2018-03-11T19:05:36.467Z,10.80
2018-03-11T19:08:03.473Z,10.80
2018-03-11T19:10:30.485Z,10.80
2018-03-11T19:12:57.484Z,10.80
2018-03-11T19:15:24.520Z,10.80
2018-03-11T19:17:52.491Z,10.80
2018-03-11T19:20:19.773Z,10.80
2018-03-11T19:22:46.824Z,10.80
2018-03-11T19:25:13.854Z,10.80
2018-03-11T19:27:41.010Z,10.80
2018-03-11T19:30:08.788Z,10.80
2018-03-11T19:32:36.572Z,10.80
2018-03-11T19:35:04.357Z,10.80
2018-03-11T19:37:31.353Z,10.80
2018-03-11T19:39:58.356Z,10.80
2018-03-11T19:42:25.404Z,10.80
2018-03-11T19:44:52.411Z,10.80
2018-03-11T19:47:19.420Z,10.80
2018-03-11T19:49:46.454Z,10.80
2018-03-11T19:52:13.459Z,10.80
2018-03-11T19:54:40.478Z,10.80
2018-03-11T19:57:07.775Z,10.80
2018-03-11T19:59:34.790Z,10.80
2018-03-11T20:02:01.874Z,10.80
2018-03-11T20:04:28.902Z,10.80
2018-03-11T20:06:55.958Z,10.80
2018-03-11T20:09:23.029Z,10.80
2018-03-11T20:11:50.040Z,10.80
2018-03-11T20:14:17.036Z,10.80
2018-03-11T20:16:44.082Z,10.80
2018-03-11T20:19:11.170Z,10.80
2018-03-11T20:21:38.169Z,10.70
2018-03-11T20:24:05.218Z,10.80
2018-03-11T20:26:32.225Z,10.80
2018-03-11T20:28:59.226Z,10.80
2018-03-11T20:31:26.232Z,10.80
2018-03-11T20:33:53.546Z,10.80
2018-03-11T20:36:21.520Z,10.70
2018-03-11T20:38:48.610Z,10.70
2018-03-11T20:41:15.698Z,10.80
2018-03-11T20:43:42.777Z,10.80
2018-03-11T20:46:09.868Z,10.70
2018-03-11T20:48:37.671Z,10.80
2018-03-11T20:51:04.704Z,10.70
2018-03-11T20:53:31.712Z,10.70
2018-03-11T20:55:58.728Z,10.80
2018-03-11T20:58:26.496Z,10.70
2018-03-11T21:00:53.555Z,10.70
2018-03-11T21:03:20.564Z,10.80
2018-03-11T21:05:47.593Z,10.70
2018-03-11T21:08:14.598Z,10.70
2018-03-11T21:10:42.523Z,10.70
2018-03-11T21:13:09.644Z,10.70
2018-03-11T21:15:36.668Z,10.70
2018-03-11T21:18:03.662Z,10.70
2018-03-11T21:20:30.667Z,10.70
2018-03-11T21:22:57.749Z,10.70
2018-03-11T21:25:24.822Z,10.90
2018-03-11T21:27:51.820Z,10.70
2018-03-11T21:30:24.695Z,10.70
2018-03-11T21:32:51.692Z,10.70
2018-03-11T21:35:19.613Z,10.70
2018-03-11T21:37:46.656Z,10.70
2018-03-11T21:40:15.165Z,10.70
2018-03-11T21:42:42.367Z,10.70
2018-03-11T21:45:10.209Z,10.70
2018-03-11T21:47:37.218Z,10.70
2018-03-11T21:50:04.253Z,10.70
2018-03-11T21:52:31.329Z,10.70
2018-03-11T21:54:58.419Z,10.70
2018-03-11T21:57:25.450Z,10.70
2018-03-11T21:59:53.286Z,10.70
2018-03-11T22:02:20.299Z,10.70
2018-03-11T22:04:48.080Z,10.70
2018-03-11T22:07:15.092Z,10.70
2018-03-11T22:09:42.090Z,10.70
2018-03-11T22:12:09.090Z,10.70
2018-03-11T22:14:36.086Z,10.70
2018-03-11T22:17:03.102Z,10.70
2018-03-11T22:19:30.206Z,10.70
2018-03-11T22:21:57.201Z,10.70
2018-03-11T22:24:24.219Z,10.70
2018-03-11T22:26:51.984Z,10.70
2018-03-11T22:29:19.092Z,10.70
2018-03-11T22:31:46.874Z,10.70
2018-03-11T22:34:13.874Z,10.60
2018-03-11T22:36:40.884Z,10.70
2018-03-11T22:39:07.989Z,10.70
2018-03-11T22:41:34.988Z,10.70
2018-03-11T22:44:01.988Z,10.70
2018-03-11T22:46:28.994Z,10.70
2018-03-11T22:48:56.098Z,10.70
2018-03-11T22:51:24.125Z,10.70
2018-03-11T22:53:51.143Z,10.70
2018-03-11T22:56:18.141Z,10.70
2018-03-11T22:58:45.166Z,10.70
2018-03-11T23:01:12.178Z,10.70
2018-03-11T23:03:39.284Z,10.70
2018-03-11T23:06:07.414Z,10.70
2018-03-11T23:08:34.522Z,10.70
2018-03-11T23:11:01.521Z,10.70
2018-03-11T23:13:28.529Z,10.60
2018-03-11T23:15:56.477Z,10.70
2018-03-11T23:18:23.557Z,10.70
2018-03-11T23:20:50.640Z,10.70
2018-03-11T23:23:17.667Z,10.70
2018-03-11T23:25:44.668Z,10.70
2018-03-11T23:28:11.669Z,10.70
2018-03-11T23:30:38.717Z,10.70
2018-03-11T23:33:05.795Z,10.70
2018-03-11T23:35:32.805Z,10.70
2018-03-11T23:38:00.623Z,10.70
2018-03-11T23:40:27.625Z,10.70
2018-03-11T23:42:54.621Z,10.70
2018-03-11T23:45:21.622Z,10.60
2018-03-11T23:47:49.472Z,10.60
2018-03-11T23:50:16.645Z,10.60
2018-03-11T23:52:43.652Z,10.70
2018-03-11T23:55:10.667Z,10.70
2018-03-11T23:57:37.688Z,10.70
